N1157K KISP-KSYR
Flight info
| Callsign | N1157K |
|---|---|
| Flight time | 1h 2m |
| Altitude | VFR |
| Route | SVD VFF |
| Aircraft | M20P/L-VGD/C |
Departure
| Time | 2026-04-28 16:17 |
|---|---|
| Airport | Long Island MacArthur Airport (KISP) |
Arrival
| Time | 2026-04-28 17:19 |
|---|---|
| Airport | Syracuse Hancock International Airport (KSYR) |
| Time | Latitude | Longitude | Altitude | Speed | Heading |
|---|---|---|---|---|---|
| 2026-04-28 16:08 | 40.79820 | -73.10838 | 98 ft | 0 kts | 0° |
| 2026-04-28 16:12 | 40.79804 | -73.10743 | 98 ft | 10 kts | 70° |
| 2026-04-28 16:12 | 40.79877 | -73.10720 | 99 ft | 13 kts | 1° |
| 2026-04-28 16:13 | 40.80087 | -73.10721 | 101 ft | 17 kts | 359° |
| 2026-04-28 16:13 | 40.80143 | -73.10693 | 99 ft | 11 kts | 54° |
| 2026-04-28 16:13 | 40.80004 | -73.10443 | 99 ft | 24 kts | 131° |
| 2026-04-28 16:14 | 40.79870 | -73.10263 | 99 ft | 0 kts | 137° |
| 2026-04-28 16:15 | 40.79870 | -73.10262 | 98 ft | 0 kts | 136° |
| 2026-04-28 16:15 | 40.79856 | -73.10246 | 98 ft | 12 kts | 140° |
| 2026-04-28 16:16 | 40.79526 | -73.10385 | 99 ft | 73 kts | 224° |
| 2026-04-28 16:16 | 40.79093 | -73.10955 | 260 ft | 100 kts | 225° |
| 2026-04-28 16:17 | 40.77971 | -73.12540 | 910 ft | 129 kts | 227° |
| 2026-04-28 16:17 | 40.77364 | -73.13436 | 1254 ft | 136 kts | 228° |
| 2026-04-28 16:17 | 40.76711 | -73.14426 | 1462 ft | 148 kts | 230° |
| 2026-04-28 16:17 | 40.76044 | -73.15509 | 1738 ft | 153 kts | 231° |
| 2026-04-28 16:18 | 40.75495 | -73.16706 | 2037 ft | 154 kts | 261° |
| 2026-04-28 16:18 | 40.75723 | -73.18121 | 2203 ft | 166 kts | 292° |
| 2026-04-28 16:18 | 40.76205 | -73.19541 | 2435 ft | 170 kts | 294° |
| 2026-04-28 16:18 | 40.76792 | -73.20905 | 2623 ft | 180 kts | 311° |
| 2026-04-28 16:19 | 40.77786 | -73.21981 | 2608 ft | 190 kts | 322° |
| 2026-04-28 16:19 | 40.78829 | -73.23032 | 2844 ft | 186 kts | 320° |
| 2026-04-28 16:19 | 40.79784 | -73.24120 | 3182 ft | 178 kts | 317° |
| 2026-04-28 16:19 | 40.80690 | -73.25198 | 3498 ft | 173 kts | 317° |
| 2026-04-28 16:20 | 40.81591 | -73.26265 | 3829 ft | 176 kts | 316° |
| 2026-04-28 16:20 | 40.82507 | -73.27344 | 4138 ft | 175 kts | 317° |
| 2026-04-28 16:20 | 40.83405 | -73.28398 | 4459 ft | 171 kts | 317° |
| 2026-04-28 16:20 | 40.84289 | -73.29442 | 4792 ft | 171 kts | 317° |
| 2026-04-28 16:21 | 40.85176 | -73.30488 | 5103 ft | 171 kts | 317° |
| 2026-04-28 16:21 | 40.86058 | -73.31528 | 5426 ft | 169 kts | 317° |
| 2026-04-28 16:21 | 40.86937 | -73.32565 | 5749 ft | 171 kts | 317° |
| 2026-04-28 16:21 | 40.87824 | -73.33613 | 6073 ft | 171 kts | 317° |
| 2026-04-28 16:22 | 40.88718 | -73.34669 | 6398 ft | 172 kts | 317° |
| 2026-04-28 16:22 | 40.89614 | -73.35727 | 6724 ft | 173 kts | 317° |
| 2026-04-28 16:22 | 40.90509 | -73.36786 | 7048 ft | 173 kts | 317° |
| 2026-04-28 16:22 | 40.91409 | -73.37850 | 7372 ft | 174 kts | 317° |
| 2026-04-28 16:23 | 40.92303 | -73.38907 | 7696 ft | 174 kts | 317° |
| 2026-04-28 16:23 | 40.93218 | -73.39986 | 8020 ft | 175 kts | 317° |
| 2026-04-28 16:23 | 40.94117 | -73.41051 | 8342 ft | 176 kts | 317° |
| 2026-04-28 16:23 | 40.95043 | -73.42148 | 8496 ft | 186 kts | 317° |
| 2026-04-28 16:24 | 40.96042 | -73.43332 | 8505 ft | 198 kts | 317° |
| 2026-04-28 16:24 | 40.97089 | -73.44573 | 8510 ft | 206 kts | 317° |
| 2026-04-28 16:24 | 40.98171 | -73.45854 | 8509 ft | 210 kts | 317° |
| 2026-04-28 16:24 | 40.99267 | -73.47155 | 8516 ft | 214 kts | 317° |
| 2026-04-28 16:25 | 41.00384 | -73.48478 | 8503 ft | 217 kts | 317° |
| 2026-04-28 16:25 | 41.01510 | -73.49816 | 8505 ft | 217 kts | 317° |
| 2026-04-28 16:25 | 41.02630 | -73.51148 | 8506 ft | 217 kts | 317° |
| 2026-04-28 16:25 | 41.03754 | -73.52482 | 8511 ft | 217 kts | 317° |
| 2026-04-28 16:26 | 41.04881 | -73.53822 | 8506 ft | 218 kts | 317° |
| 2026-04-28 16:26 | 41.06008 | -73.55164 | 8506 ft | 218 kts | 317° |
| 2026-04-28 16:26 | 41.07136 | -73.56505 | 8508 ft | 218 kts | 317° |
| 2026-04-28 16:26 | 41.08262 | -73.57847 | 8506 ft | 218 kts | 317° |
| 2026-04-28 16:27 | 41.09388 | -73.59187 | 8505 ft | 217 kts | 317° |
| 2026-04-28 16:27 | 41.10512 | -73.60528 | 8505 ft | 217 kts | 317° |
| 2026-04-28 16:27 | 41.12758 | -73.63206 | 8505 ft | 217 kts | 317° |
| 2026-04-28 16:28 | 41.13879 | -73.64545 | 8507 ft | 217 kts | 317° |
| 2026-04-28 16:28 | 41.14623 | -73.65434 | 8505 ft | 217 kts | 317° |
| 2026-04-28 16:28 | 41.16124 | -73.67226 | 8505 ft | 217 kts | 317° |
| 2026-04-28 16:28 | 41.17245 | -73.68565 | 8506 ft | 217 kts | 317° |
| 2026-04-28 16:29 | 41.19487 | -73.71248 | 8506 ft | 217 kts | 317° |
| 2026-04-28 16:29 | 41.21732 | -73.73937 | 8502 ft | 218 kts | 317° |
| 2026-04-28 16:30 | 41.22856 | -73.75286 | 8504 ft | 218 kts | 317° |
| 2026-04-28 16:30 | 41.23979 | -73.76630 | 8502 ft | 218 kts | 317° |
| 2026-04-28 16:30 | 41.25105 | -73.77979 | 8502 ft | 217 kts | 317° |
| 2026-04-28 16:30 | 41.26227 | -73.79325 | 8501 ft | 217 kts | 317° |
| 2026-04-28 16:31 | 41.27348 | -73.80672 | 8501 ft | 217 kts | 317° |
| 2026-04-28 16:31 | 41.28469 | -73.82018 | 8500 ft | 217 kts | 317° |
| 2026-04-28 16:31 | 41.29590 | -73.83363 | 8501 ft | 218 kts | 317° |
| 2026-04-28 16:31 | 41.30713 | -73.84715 | 8499 ft | 218 kts | 317° |
| 2026-04-28 16:32 | 41.31835 | -73.86065 | 8500 ft | 217 kts | 317° |
| 2026-04-28 16:32 | 41.34075 | -73.88761 | 8500 ft | 217 kts | 317° |
| 2026-04-28 16:32 | 41.35192 | -73.90107 | 8500 ft | 217 kts | 317° |
| 2026-04-28 16:33 | 41.36313 | -73.91457 | 8500 ft | 217 kts | 317° |
| 2026-04-28 16:33 | 41.36675 | -73.91894 | 8500 ft | 217 kts | 317° |
| 2026-04-28 16:33 | 41.38553 | -73.94158 | 8500 ft | 217 kts | 317° |
| 2026-04-28 16:33 | 41.39671 | -73.95509 | 8500 ft | 217 kts | 317° |
| 2026-04-28 16:34 | 41.40774 | -73.96841 | 8500 ft | 217 kts | 317° |
| 2026-04-28 16:34 | 41.41893 | -73.98193 | 8500 ft | 217 kts | 317° |
| 2026-04-28 16:34 | 41.43010 | -73.99542 | 8510 ft | 218 kts | 317° |
| 2026-04-28 16:34 | 41.44129 | -74.00896 | 8611 ft | 212 kts | 317° |
| 2026-04-28 16:35 | 41.45191 | -74.02180 | 8930 ft | 201 kts | 317° |
| 2026-04-28 16:35 | 41.46206 | -74.03410 | 9247 ft | 194 kts | 317° |
| 2026-04-28 16:35 | 41.47195 | -74.04609 | 9565 ft | 190 kts | 317° |
| 2026-04-28 16:35 | 41.48167 | -74.05786 | 9884 ft | 188 kts | 317° |
| 2026-04-28 16:36 | 41.49131 | -74.06954 | 10204 ft | 187 kts | 317° |
| 2026-04-28 16:36 | 41.50091 | -74.08120 | 10489 ft | 189 kts | 317° |
| 2026-04-28 16:36 | 41.51102 | -74.09345 | 10498 ft | 203 kts | 317° |
| 2026-04-28 16:36 | 41.52170 | -74.10641 | 10505 ft | 211 kts | 317° |
| 2026-04-28 16:37 | 41.53273 | -74.11980 | 10508 ft | 217 kts | 317° |
| 2026-04-28 16:37 | 41.54396 | -74.13343 | 10510 ft | 219 kts | 317° |
| 2026-04-28 16:37 | 41.55531 | -74.14720 | 10513 ft | 221 kts | 317° |
| 2026-04-28 16:38 | 41.57819 | -74.17505 | 10504 ft | 224 kts | 317° |
| 2026-04-28 16:38 | 41.58970 | -74.18906 | 10507 ft | 224 kts | 317° |
| 2026-04-28 16:38 | 41.60123 | -74.20307 | 10503 ft | 224 kts | 317° |
| 2026-04-28 16:38 | 41.61273 | -74.21711 | 10504 ft | 224 kts | 317° |
| 2026-04-28 16:39 | 41.62424 | -74.23115 | 10506 ft | 224 kts | 317° |
| 2026-04-28 16:39 | 41.63577 | -74.24518 | 10504 ft | 224 kts | 317° |
| 2026-04-28 16:39 | 41.64727 | -74.25925 | 10509 ft | 225 kts | 317° |
| 2026-04-28 16:39 | 41.65880 | -74.27330 | 10505 ft | 224 kts | 317° |
| 2026-04-28 16:40 | 41.67014 | -74.28714 | 10505 ft | 224 kts | 317° |
| 2026-04-28 16:40 | 41.67788 | -74.29661 | 10505 ft | 223 kts | 317° |
| 2026-04-28 16:40 | 41.68935 | -74.31064 | 10505 ft | 223 kts | 317° |
| 2026-04-28 16:40 | 41.70082 | -74.32467 | 10504 ft | 223 kts | 317° |
| 2026-04-28 16:41 | 41.71601 | -74.34325 | 10504 ft | 223 kts | 317° |
| 2026-04-28 16:41 | 41.72375 | -74.35272 | 10504 ft | 223 kts | 317° |
| 2026-04-28 16:41 | 41.73889 | -74.37128 | 10510 ft | 224 kts | 316° |
| 2026-04-28 16:41 | 41.74665 | -74.38081 | 10504 ft | 224 kts | 317° |
| 2026-04-28 16:42 | 41.75772 | -74.39436 | 10503 ft | 218 kts | 317° |
| 2026-04-28 16:42 | 41.76232 | -74.39997 | 10503 ft | 219 kts | 317° |
| 2026-04-28 16:42 | 41.77360 | -74.41376 | 10502 ft | 220 kts | 316° |
| 2026-04-28 16:42 | 41.78492 | -74.42770 | 10502 ft | 221 kts | 316° |
| 2026-04-28 16:43 | 41.79613 | -74.44151 | 10501 ft | 222 kts | 316° |
| 2026-04-28 16:43 | 41.80751 | -74.45550 | 10502 ft | 222 kts | 316° |
| 2026-04-28 16:43 | 41.81892 | -74.46952 | 10502 ft | 222 kts | 316° |
| 2026-04-28 16:43 | 41.83032 | -74.48354 | 10502 ft | 223 kts | 316° |
| 2026-04-28 16:44 | 41.84173 | -74.49759 | 10502 ft | 223 kts | 316° |
| 2026-04-28 16:44 | 41.85315 | -74.51165 | 10503 ft | 223 kts | 316° |
| 2026-04-28 16:44 | 41.86460 | -74.52575 | 10501 ft | 224 kts | 316° |
| 2026-04-28 16:44 | 41.87607 | -74.53990 | 10502 ft | 224 kts | 316° |
| 2026-04-28 16:45 | 41.88754 | -74.55404 | 10501 ft | 224 kts | 316° |
| 2026-04-28 16:45 | 41.89898 | -74.56817 | 10502 ft | 224 kts | 316° |
| 2026-04-28 16:45 | 41.91045 | -74.58232 | 10500 ft | 224 kts | 316° |
| 2026-04-28 16:45 | 41.92189 | -74.59645 | 10500 ft | 224 kts | 316° |
| 2026-04-28 16:46 | 41.93335 | -74.61059 | 10500 ft | 224 kts | 316° |
| 2026-04-28 16:46 | 41.94479 | -74.62476 | 10500 ft | 224 kts | 316° |
| 2026-04-28 16:46 | 41.95623 | -74.63891 | 10500 ft | 223 kts | 316° |
| 2026-04-28 16:46 | 41.96765 | -74.65304 | 10500 ft | 223 kts | 316° |
| 2026-04-28 16:47 | 41.97912 | -74.66723 | 10500 ft | 224 kts | 316° |
| 2026-04-28 16:47 | 41.99057 | -74.68143 | 10499 ft | 224 kts | 316° |
| 2026-04-28 16:47 | 42.00203 | -74.69563 | 10499 ft | 224 kts | 316° |
| 2026-04-28 16:47 | 42.01344 | -74.70979 | 10499 ft | 223 kts | 316° |
| 2026-04-28 16:48 | 42.02485 | -74.72394 | 10498 ft | 223 kts | 316° |
| 2026-04-28 16:48 | 42.03625 | -74.73809 | 10500 ft | 223 kts | 316° |
| 2026-04-28 16:48 | 42.04765 | -74.75227 | 10498 ft | 223 kts | 316° |
| 2026-04-28 16:48 | 42.05908 | -74.76644 | 10497 ft | 223 kts | 316° |
| 2026-04-28 16:49 | 42.07048 | -74.78062 | 10497 ft | 223 kts | 316° |
| 2026-04-28 16:49 | 42.08184 | -74.79475 | 10498 ft | 223 kts | 316° |
| 2026-04-28 16:49 | 42.09322 | -74.80894 | 10499 ft | 223 kts | 316° |
| 2026-04-28 16:49 | 42.10464 | -74.82315 | 10498 ft | 224 kts | 316° |
| 2026-04-28 16:50 | 42.11605 | -74.83736 | 10498 ft | 223 kts | 316° |
| 2026-04-28 16:50 | 42.12746 | -74.85158 | 10498 ft | 224 kts | 316° |
| 2026-04-28 16:50 | 42.13885 | -74.86581 | 10497 ft | 223 kts | 316° |
| 2026-04-28 16:50 | 42.15027 | -74.88003 | 10497 ft | 223 kts | 316° |
| 2026-04-28 16:51 | 42.16165 | -74.89428 | 10501 ft | 224 kts | 316° |
| 2026-04-28 16:51 | 42.17310 | -74.90856 | 10497 ft | 224 kts | 316° |
| 2026-04-28 16:51 | 42.18455 | -74.92285 | 10501 ft | 224 kts | 316° |
| 2026-04-28 16:51 | 42.19597 | -74.93714 | 10498 ft | 224 kts | 316° |
| 2026-04-28 16:52 | 42.20739 | -74.95143 | 10498 ft | 224 kts | 316° |
| 2026-04-28 16:52 | 42.21865 | -74.96554 | 10499 ft | 224 kts | 316° |
| 2026-04-28 16:52 | 42.23006 | -74.97981 | 10497 ft | 223 kts | 316° |
| 2026-04-28 16:52 | 42.24146 | -74.99408 | 10500 ft | 224 kts | 316° |
| 2026-04-28 16:53 | 42.25292 | -75.00847 | 10500 ft | 225 kts | 316° |
| 2026-04-28 16:53 | 42.26437 | -75.02283 | 10497 ft | 224 kts | 316° |
| 2026-04-28 16:53 | 42.27576 | -75.03713 | 10497 ft | 224 kts | 316° |
| 2026-04-28 16:53 | 42.28722 | -75.05151 | 10501 ft | 225 kts | 316° |
| 2026-04-28 16:54 | 42.29867 | -75.06590 | 10496 ft | 225 kts | 316° |
| 2026-04-28 16:54 | 42.31011 | -75.08028 | 10506 ft | 225 kts | 316° |
| 2026-04-28 16:54 | 42.32158 | -75.09469 | 10498 ft | 225 kts | 316° |
| 2026-04-28 16:54 | 42.33304 | -75.10911 | 10498 ft | 225 kts | 316° |
| 2026-04-28 16:55 | 42.34444 | -75.12347 | 10498 ft | 225 kts | 316° |
| 2026-04-28 16:55 | 42.35589 | -75.13789 | 10498 ft | 224 kts | 316° |
| 2026-04-28 16:55 | 42.36731 | -75.15229 | 10502 ft | 225 kts | 316° |
| 2026-04-28 16:55 | 42.37873 | -75.16668 | 10500 ft | 224 kts | 316° |
| 2026-04-28 16:56 | 42.39012 | -75.18105 | 10499 ft | 224 kts | 316° |
| 2026-04-28 16:56 | 42.40155 | -75.19548 | 10497 ft | 224 kts | 316° |
| 2026-04-28 16:56 | 42.41292 | -75.20983 | 10496 ft | 224 kts | 316° |
| 2026-04-28 16:56 | 42.42431 | -75.22421 | 10497 ft | 224 kts | 316° |
| 2026-04-28 16:57 | 42.43571 | -75.23864 | 10431 ft | 227 kts | 316° |
| 2026-04-28 16:57 | 42.44736 | -75.25341 | 10256 ft | 231 kts | 316° |
| 2026-04-28 16:57 | 42.45922 | -75.26836 | 10085 ft | 234 kts | 316° |
| 2026-04-28 16:57 | 42.47114 | -75.28344 | 9911 ft | 235 kts | 316° |
| 2026-04-28 16:58 | 42.48303 | -75.29854 | 9740 ft | 235 kts | 316° |
| 2026-04-28 16:58 | 42.49497 | -75.31368 | 9563 ft | 235 kts | 316° |
| 2026-04-28 16:58 | 42.50695 | -75.32886 | 9393 ft | 237 kts | 316° |
| 2026-04-28 16:58 | 42.51889 | -75.34402 | 9220 ft | 233 kts | 316° |
| 2026-04-28 16:59 | 42.53064 | -75.35892 | 9038 ft | 231 kts | 316° |
| 2026-04-28 16:59 | 42.54238 | -75.37385 | 8866 ft | 232 kts | 316° |
| 2026-04-28 16:59 | 42.55419 | -75.38878 | 8689 ft | 232 kts | 316° |
| 2026-04-28 16:59 | 42.56606 | -75.40362 | 8514 ft | 232 kts | 316° |
| 2026-04-28 17:00 | 42.57792 | -75.41838 | 8338 ft | 232 kts | 317° |
| 2026-04-28 17:00 | 42.59015 | -75.43258 | 8167 ft | 231 kts | 319° |
| 2026-04-28 17:00 | 42.60262 | -75.44649 | 7994 ft | 232 kts | 320° |
| 2026-04-28 17:00 | 42.61525 | -75.46008 | 7814 ft | 231 kts | 321° |
| 2026-04-28 17:01 | 42.62785 | -75.47364 | 7639 ft | 231 kts | 321° |
| 2026-04-28 17:01 | 42.64040 | -75.48717 | 7467 ft | 230 kts | 321° |
| 2026-04-28 17:01 | 42.65295 | -75.50073 | 7293 ft | 231 kts | 321° |
| 2026-04-28 17:01 | 42.66547 | -75.51424 | 7118 ft | 230 kts | 321° |
| 2026-04-28 17:02 | 42.67802 | -75.52780 | 6944 ft | 231 kts | 321° |
| 2026-04-28 17:02 | 42.68633 | -75.53678 | 6828 ft | 230 kts | 321° |
| 2026-04-28 17:02 | 42.70298 | -75.55472 | 6543 ft | 232 kts | 321° |
| 2026-04-28 17:02 | 42.71563 | -75.56835 | 6312 ft | 231 kts | 321° |
| 2026-04-28 17:03 | 42.74087 | -75.59561 | 5863 ft | 231 kts | 321° |
| 2026-04-28 17:03 | 42.75347 | -75.60921 | 5638 ft | 230 kts | 321° |
| 2026-04-28 17:03 | 42.76598 | -75.62280 | 5428 ft | 230 kts | 320° |
| 2026-04-28 17:04 | 42.79102 | -75.64994 | 4961 ft | 229 kts | 321° |
| 2026-04-28 17:04 | 42.80356 | -75.66349 | 4745 ft | 230 kts | 321° |
| 2026-04-28 17:05 | 42.82849 | -75.69043 | 4290 ft | 229 kts | 321° |
| 2026-04-28 17:05 | 42.84092 | -75.70385 | 4077 ft | 227 kts | 321° |
| 2026-04-28 17:05 | 42.85380 | -75.71563 | 3854 ft | 220 kts | 335° |
| 2026-04-28 17:06 | 42.88168 | -75.72722 | 3370 ft | 202 kts | 344° |
| 2026-04-28 17:06 | 42.89506 | -75.73224 | 3140 ft | 197 kts | 344° |
| 2026-04-28 17:06 | 42.92129 | -75.74208 | 2755 ft | 192 kts | 344° |
| 2026-04-28 17:07 | 42.93395 | -75.74693 | 2662 ft | 188 kts | 342° |
| 2026-04-28 17:07 | 42.94636 | -75.75270 | 2551 ft | 193 kts | 340° |
| 2026-04-28 17:07 | 42.95383 | -75.75629 | 2509 ft | 197 kts | 340° |
| 2026-04-28 17:07 | 42.96413 | -75.76124 | 2510 ft | 198 kts | 340° |
| 2026-04-28 17:08 | 42.97719 | -75.76751 | 2510 ft | 199 kts | 340° |
| 2026-04-28 17:08 | 42.99030 | -75.77381 | 2503 ft | 201 kts | 340° |
| 2026-04-28 17:08 | 43.00350 | -75.78013 | 2507 ft | 202 kts | 340° |
| 2026-04-28 17:08 | 43.01679 | -75.78651 | 2496 ft | 203 kts | 340° |
| 2026-04-28 17:09 | 43.03007 | -75.79294 | 2497 ft | 202 kts | 340° |
| 2026-04-28 17:09 | 43.04328 | -75.79929 | 2502 ft | 201 kts | 340° |
| 2026-04-28 17:09 | 43.05396 | -75.80436 | 2484 ft | 135 kts | 340° |
| 2026-04-28 17:09 | 43.06216 | -75.80827 | 2487 ft | 126 kts | 340° |
| 2026-04-28 17:10 | 43.07086 | -75.81234 | 2491 ft | 137 kts | 340° |
| 2026-04-28 17:10 | 43.08002 | -75.81663 | 2470 ft | 147 kts | 340° |
| 2026-04-28 17:10 | 43.09037 | -75.82155 | 2407 ft | 165 kts | 340° |
| 2026-04-28 17:10 | 43.10166 | -75.82699 | 2356 ft | 174 kts | 340° |
| 2026-04-28 17:11 | 43.11326 | -75.83255 | 2316 ft | 180 kts | 340° |
| 2026-04-28 17:11 | 43.12557 | -75.83846 | 2239 ft | 193 kts | 340° |
| 2026-04-28 17:11 | 43.13842 | -75.84463 | 2172 ft | 198 kts | 340° |
| 2026-04-28 17:11 | 43.14977 | -75.85434 | 2094 ft | 198 kts | 309° |
| 2026-04-28 17:12 | 43.15456 | -75.87163 | 2012 ft | 198 kts | 271° |
| 2026-04-28 17:12 | 43.15366 | -75.89032 | 1940 ft | 198 kts | 270° |
| 2026-04-28 17:12 | 43.15468 | -75.90920 | 1877 ft | 200 kts | 275° |
| 2026-04-28 17:12 | 43.15602 | -75.92825 | 1801 ft | 202 kts | 275° |
| 2026-04-28 17:13 | 43.15737 | -75.94744 | 1747 ft | 203 kts | 275° |
| 2026-04-28 17:13 | 43.15874 | -75.96677 | 1656 ft | 204 kts | 275° |
| 2026-04-28 17:13 | 43.15996 | -75.98387 | 1570 ft | 148 kts | 276° |
| 2026-04-28 17:13 | 43.16087 | -75.99630 | 1453 ft | 120 kts | 275° |
| 2026-04-28 17:14 | 43.16023 | -76.00685 | 1330 ft | 109 kts | 237° |
| 2026-04-28 17:14 | 43.15475 | -76.01345 | 1230 ft | 103 kts | 230° |
| 2026-04-28 17:14 | 43.15103 | -76.02206 | 1143 ft | 104 kts | 238° |
| 2026-04-28 17:14 | 43.14728 | -76.03038 | 1057 ft | 101 kts | 238° |
| 2026-04-28 17:15 | 43.14346 | -76.03889 | 1008 ft | 106 kts | 238° |
| 2026-04-28 17:15 | 43.13969 | -76.04753 | 986 ft | 106 kts | 240° |
| 2026-04-28 17:15 | 43.13607 | -76.05626 | 988 ft | 105 kts | 237° |
| 2026-04-28 17:15 | 43.13217 | -76.06462 | 928 ft | 103 kts | 237° |
| 2026-04-28 17:16 | 43.12814 | -76.07316 | 963 ft | 104 kts | 236° |
| 2026-04-28 17:16 | 43.12641 | -76.08258 | 898 ft | 109 kts | 280° |
| 2026-04-28 17:16 | 43.13054 | -76.09101 | 890 ft | 109 kts | 314° |
| 2026-04-28 17:16 | 43.13593 | -76.09811 | 915 ft | 107 kts | 314° |
| 2026-04-28 17:17 | 43.14131 | -76.10521 | 932 ft | 107 kts | 314° |
| 2026-04-28 17:17 | 43.14643 | -76.11232 | 936 ft | 103 kts | 310° |
| 2026-04-28 17:17 | 43.15077 | -76.12013 | 907 ft | 100 kts | 284° |
| 2026-04-28 17:17 | 43.14823 | -76.12773 | 890 ft | 91 kts | 216° |
| 2026-04-28 17:18 | 43.14343 | -76.13256 | 850 ft | 82 kts | 216° |
| 2026-04-28 17:18 | 43.13839 | -76.13496 | 805 ft | 81 kts | 151° |
| 2026-04-28 17:18 | 43.13379 | -76.13028 | 709 ft | 82 kts | 137° |
| 2026-04-28 17:18 | 43.12978 | -76.12474 | 648 ft | 83 kts | 135° |
| 2026-04-28 17:19 | 43.12577 | -76.11910 | 581 ft | 82 kts | 135° |
| 2026-04-28 17:19 | 43.12192 | -76.11370 | 474 ft | 73 kts | 135° |
| 2026-04-28 17:19 | 43.11884 | -76.10942 | 423 ft | 52 kts | 135° |
| 2026-04-28 17:19 | 43.11667 | -76.10756 | 420 ft | 20 kts | 177° |
| 2026-04-28 17:20 | 43.11532 | -76.10749 | 419 ft | 20 kts | 177° |
| 2026-04-28 17:20 | 43.11437 | -76.10743 | 419 ft | 21 kts | 176° |
| 2026-04-28 17:20 | 43.11236 | -76.10728 | 418 ft | 23 kts | 177° |
| 2026-04-28 17:20 | 43.11179 | -76.10724 | 418 ft | 0 kts | 175° |
| 2026-04-28 17:21 | 43.11172 | -76.10723 | 418 ft | 6 kts | 173° |
| 2026-04-28 17:21 | 43.11069 | -76.10721 | 419 ft | 20 kts | 179° |
| 2026-04-28 17:22 | 43.10989 | -76.11260 | 419 ft | 41 kts | 268° |
| 2026-04-28 17:22 | 43.10976 | -76.11644 | 418 ft | 40 kts | 267° |
| 2026-04-28 17:22 | 43.10964 | -76.12017 | 418 ft | 39 kts | 267° |
| 2026-04-28 17:23 | 43.10941 | -76.12682 | 419 ft | 31 kts | 266° |
| 2026-04-28 17:23 | 43.10944 | -76.12939 | 413 ft | 22 kts | 314° |
| 2026-04-28 17:23 | 43.11059 | -76.13075 | 418 ft | 18 kts | 317° |
| 2026-04-28 17:23 | 43.11141 | -76.13068 | 419 ft | 14 kts | 348° |
| 2026-04-28 17:24 | 43.11146 | -76.13056 | 418 ft | 0 kts | 176° |